Time;durP1;ratioP1;P1;durP2;ratioP2;P2;SDS_P1;SDS_P2;PMS_P1;PMS_P2;Temp;Humidity;BMP_temperature;BMP_pressure;BME280_temperature;BME280_humidity;BME280_pressure;Samples;Min_cycle;Max_cycle;Signal;HPM_P1;HPM_P2
2022/08/19 00:01:49;;;;;;;9.75;8.77;;;19.00;99.90;;;;;;4979771;28;20467;-58
2022/08/19 00:04:18;;;;;;;11.23;8.90;;;19.00;99.90;;;;;;4984752;28;20050;-58
2022/08/19 00:06:47;;;;;;;11.57;8.75;;;19.10;99.90;;;;;;4980468;28;20396;-58
2022/08/19 00:09:17;;;;;;;11.13;9.18;;;19.20;99.90;;;;;;4986829;28;20073;-59
2022/08/19 00:11:43;;;;;;;10.10;8.23;;;19.00;99.90;;;;;;4984190;28;20046;-58
2022/08/19 00:14:12;;;;;;;9.63;8.63;;;19.00;99.90;;;;;;4987292;28;20049;-57
2022/08/19 00:16:39;;;;;;;10.68;8.85;;;18.90;99.90;;;;;;4988077;28;20549;-58
2022/08/19 00:19:05;;;;;;;10.10;8.57;;;19.00;99.90;;;;;;4988103;28;20609;-59
2022/08/19 00:21:31;;;;;;;10.20;9.05;;;19.10;99.90;;;;;;4986262;28;20050;-58
2022/08/19 00:23:57;;;;;;;11.18;8.57;;;19.00;99.90;;;;;;4985669;28;20128;-58
2022/08/19 00:26:25;;;;;;;9.88;8.93;;;19.00;99.90;;;;;;4998570;28;20038;-57
2022/08/19 00:28:50;;;;;;;9.95;8.95;;;18.90;99.90;;;;;;4977713;28;20159;-57
2022/08/19 00:31:16;;;;;;;10.30;9.25;;;18.90;99.90;;;;;;4992294;28;20629;-58
2022/08/19 00:33:42;;;;;;;11.55;8.18;;;18.90;99.90;;;;;;4991432;28;20045;-57
2022/08/19 00:36:10;;;;;;;9.85;8.75;;;18.80;99.90;;;;;;4982040;28;20105;-57
2022/08/19 00:38:40;;;;;;;12.45;8.95;;;18.80;99.90;;;;;;4984585;28;20501;-57
2022/08/19 00:41:07;;;;;;;10.52;8.90;;;18.80;99.90;;;;;;4989755;28;20030;-58
2022/08/19 00:43:33;;;;;;;10.18;9.07;;;18.90;99.90;;;;;;4986516;28;20042;-58
2022/08/19 00:45:58;;;;;;;10.20;9.20;;;18.80;99.90;;;;;;4986223;28;20488;-58
2022/08/19 00:48:24;;;;;;;10.15;8.98;;;18.70;99.90;;;;;;5001374;28;20058;-57
2022/08/19 00:50:52;;;;;;;10.57;8.98;;;18.80;99.90;;;;;;4976130;28;20402;-58
2022/08/19 00:53:28;;;;;;;11.52;9.45;;;18.70;99.90;;;;;;4989037;28;20055;-58
2022/08/19 00:55:57;;;;;;;14.45;9.40;;;18.60;99.90;;;;;;4982393;28;20512;-57
2022/08/19 00:58:30;;;;;;;9.85;8.88;;;18.40;99.90;;;;;;4989224;28;20038;-57
2022/08/19 01:00:55;;;;;;;10.47;8.83;;;18.50;99.90;;;;;;4977055;28;20077;-59
2022/08/19 01:03:22;;;;;;;10.63;9.43;;;18.60;99.90;;;;;;4993021;28;20030;-56
2022/08/19 01:05:50;;;;;;;10.25;9.25;;;18.60;99.90;;;;;;4980187;28;20045;-58
2022/08/19 01:08:18;;;;;;;10.60;9.50;;;18.60;99.90;;;;;;4992078;28;20661;-57
2022/08/19 01:10:48;;;;;;;11.45;8.90;;;18.40;99.90;;;;;;4984158;28;20090;-57
2022/08/19 01:13:17;;;;;;;11.25;9.40;;;18.60;99.90;;;;;;4986034;28;20390;-58
2022/08/19 01:15:50;;;;;;;11.45;9.60;;;18.50;99.90;;;;;;4981844;28;20474;-57
2022/08/19 01:18:17;;;;;;;11.82;10.30;;;18.50;99.90;;;;;;4992118;28;20512;-58
2022/08/19 01:20:43;;;;;;;11.43;10.00;;;18.60;99.90;;;;;;4996786;28;20357;-58
2022/08/19 01:23:09;;;;;;;12.20;10.10;;;18.60;99.90;;;;;;4975943;28;20108;-58
2022/08/19 01:25:49;;;;;;;13.30;10.00;;;18.50;99.90;;;;;;4990619;28;20085;-58
2022/08/19 01:28:25;;;;;;;10.65;9.52;;;18.50;99.90;;;;;;4991857;28;20026;-57
2022/08/19 01:30:51;;;;;;;12.13;10.27;;;18.40;99.90;;;;;;4983412;28;20037;-57
2022/08/19 01:33:19;;;;;;;12.98;10.45;;;18.50;99.90;;;;;;4989827;28;20394;-57
2022/08/19 01:35:44;;;;;;;12.05;9.93;;;18.40;99.90;;;;;;4986714;28;20553;-57
2022/08/19 01:38:21;;;;;;;11.60;10.45;;;18.40;99.90;;;;;;4993579;28;20106;-58
2022/08/19 01:40:46;;;;;;;11.48;10.27;;;18.40;99.90;;;;;;4990194;28;20489;-58
2022/08/19 01:43:12;;;;;;;12.25;10.82;;;18.30;99.90;;;;;;4980890;28;20088;-59
2022/08/19 01:45:39;;;;;;;11.38;10.27;;;18.30;99.90;;;;;;4983805;28;20022;-59
2022/08/19 01:48:05;;;;;;;11.27;10.05;;;18.40;99.90;;;;;;4999466;28;20096;-57
2022/08/19 01:50:33;;;;;;;10.85;9.65;;;18.40;99.90;;;;;;4984090;28;20378;-58
2022/08/19 01:52:59;;;;;;;13.52;10.50;;;18.40;99.90;;;;;;4978296;28;20042;-59
2022/08/19 01:55:25;;;;;;;14.85;11.25;;;18.40;99.90;;;;;;4984709;28;20112;-57
2022/08/19 01:57:56;;;;;;;11.48;10.27;;;18.40;99.90;;;;;;4986680;28;20133;-57
2022/08/19 02:00:24;;;;;;;12.45;10.70;;;18.10;99.90;;;;;;4987743;28;20034;-59
2022/08/19 02:02:50;;;;;;;12.27;10.95;;;18.20;99.90;;;;;;4976670;28;20043;-58
2022/08/19 02:05:17;;;;;;;12.27;11.00;;;18.20;99.90;;;;;;4972060;28;20026;-58
2022/08/19 02:07:44;;;;;;;12.35;11.25;;;18.20;99.90;;;;;;4984692;28;20031;-57
2022/08/19 02:10:15;;;;;;;13.43;12.02;;;18.20;99.90;;;;;;4984370;28;20062;-58
2022/08/19 02:12:41;;;;;;;16.25;12.48;;;18.30;99.90;;;;;;4983148;28;20556;-56
2022/08/19 02:15:07;;;;;;;15.60;12.75;;;18.30;99.90;;;;;;4979819;28;20505;-57
2022/08/19 02:17:33;;;;;;;13.52;12.13;;;18.20;99.90;;;;;;4988719;28;20041;-57
2022/08/19 02:19:59;;;;;;;19.30;13.80;;;18.30;99.90;;;;;;4985413;28;20030;-57
2022/08/19 02:22:26;;;;;;;18.60;14.95;;;18.20;99.90;;;;;;4988912;28;20031;-57
2022/08/19 02:24:55;;;;;;;15.60;14.00;;;18.10;99.90;;;;;;4991161;28;20382;-58
2022/08/19 02:27:22;;;;;;;17.15;15.20;;;18.10;99.90;;;;;;4988274;28;20091;-58
2022/08/19 02:29:49;;;;;;;17.77;15.80;;;18.10;99.90;;;;;;4996796;28;20057;-57
2022/08/19 02:32:15;;;;;;;17.20;15.30;;;18.10;99.90;;;;;;4986979;28;20030;-59
2022/08/19 02:34:41;;;;;;;17.65;15.73;;;18.00;99.90;;;;;;4980846;28;20038;-58
2022/08/19 02:38:24;;;;;;;19.40;16.13;;;17.90;99.90;;;;;;4988257;28;20026;-59
2022/08/19 02:39:53;;;;;;;16.85;15.15;;;17.90;99.90;;;;;;4981477;28;20932;-57
2022/08/19 02:42:18;;;;;;;18.15;15.80;;;17.90;99.90;;;;;;4986009;28;20109;-58
2022/08/19 02:44:44;;;;;;;17.95;16.05;;;17.90;99.90;;;;;;4984603;28;20414;-58
2022/08/19 02:47:10;;;;;;;18.08;16.08;;;17.90;99.90;;;;;;4980353;28;20113;-56
2022/08/19 02:49:35;;;;;;;19.08;16.98;;;17.90;99.90;;;;;;4983832;28;20026;-58
2022/08/19 02:52:02;;;;;;;20.38;18.10;;;17.90;99.90;;;;;;4975096;28;20097;-56
2022/08/19 02:54:28;;;;;;;20.08;17.98;;;17.90;99.90;;;;;;4984301;28;20037;-57
2022/08/19 02:56:53;;;;;;;20.98;18.00;;;17.90;99.90;;;;;;4987473;28;20038;-57
2022/08/19 02:59:19;;;;;;;24.73;20.75;;;17.80;99.90;;;;;;4980791;28;20031;-58
2022/08/19 03:01:45;;;;;;;23.70;20.55;;;17.70;99.90;;;;;;4983197;28;20033;-58
2022/08/19 03:04:15;;;;;;;22.85;20.40;;;17.70;99.90;;;;;;4986992;28;20129;-56
2022/08/19 03:06:43;;;;;;;25.08;22.50;;;17.70;99.90;;;;;;4978509;28;20038;-58
2022/08/19 03:09:10;;;;;;;27.23;24.33;;;17.70;99.90;;;;;;4985945;28;20030;-57
2022/08/19 03:11:36;;;;;;;28.58;24.30;;;17.70;99.90;;;;;;4985816;28;20562;-58
2022/08/19 03:14:03;;;;;;;27.90;24.52;;;17.80;99.90;;;;;;4985888;28;20033;-57
2022/08/19 03:16:31;;;;;;;28.80;24.23;;;17.80;99.90;;;;;;4991047;28;20022;-58
2022/08/19 03:19:00;;;;;;;29.52;24.25;;;17.80;99.90;;;;;;4986675;28;20054;-57
2022/08/19 03:21:28;;;;;;;31.33;26.27;;;17.80;99.90;;;;;;4983919;28;20548;-58
2022/08/19 03:23:55;;;;;;;30.98;25.58;;;17.70;99.90;;;;;;4978806;28;20582;-58
2022/08/19 03:26:21;;;;;;;34.28;30.23;;;17.70;99.90;;;;;;4985373;28;20060;-57
2022/08/19 03:28:49;;;;;;;33.00;29.50;;;17.80;99.90;;;;;;4987987;28;20061;-58
2022/08/19 03:31:21;;;;;;;34.33;29.90;;;17.80;99.90;;;;;;4985106;28;20030;-58
2022/08/19 03:33:46;;;;;;;35.65;30.38;;;17.80;99.90;;;;;;4997087;28;20034;-57
2022/08/19 03:36:22;;;;;;;33.97;29.17;;;17.80;99.90;;;;;;4990434;28;20031;-56
2022/08/19 03:38:50;;;;;;;35.53;31.75;;;17.70;99.90;;;;;;4984269;28;20037;-57
2022/08/19 03:41:19;;;;;;;36.92;32.33;;;17.80;99.90;;;;;;4984402;28;20442;-56
2022/08/19 03:43:46;;;;;;;38.35;34.10;;;17.70;99.90;;;;;;4991003;28;20096;-57
2022/08/19 03:46:17;;;;;;;38.25;33.10;;;17.80;99.90;;;;;;4991572;28;20026;-59
2022/08/19 03:48:44;;;;;;;38.30;33.40;;;17.80;99.90;;;;;;4981002;28;20034;-57
2022/08/19 03:51:19;;;;;;;39.00;33.58;;;17.90;99.90;;;;;;4991231;28;20041;-58
2022/08/19 03:53:45;;;;;;;35.20;31.30;;;17.70;99.90;;;;;;4984318;28;20038;-58
2022/08/19 03:56:12;;;;;;;38.22;32.60;;;17.70;99.90;;;;;;4987382;28;20112;-58
2022/08/19 03:58:39;;;;;;;39.58;35.38;;;17.60;99.90;;;;;;4990957;28;20114;-57
2022/08/19 04:01:12;;;;;;;40.15;35.78;;;17.70;99.90;;;;;;4985602;28;20473;-57
2022/08/19 04:03:38;;;;;;;41.10;36.07;;;17.70;99.90;;;;;;4982003;28;20026;-57
2022/08/19 04:06:20;;;;;;;41.90;37.15;;;17.70;99.90;;;;;;4978601;28;20364;-56
2022/08/19 04:08:47;;;;;;;43.35;36.42;;;17.70;99.90;;;;;;4986052;28;20034;-56
2022/08/19 04:11:17;;;;;;;42.25;36.50;;;17.60;99.90;;;;;;4983094;28;20026;-58
2022/08/19 04:13:44;;;;;;;40.33;35.92;;;17.60;99.90;;;;;;4985205;28;20073;-57
2022/08/19 04:16:10;;;;;;;43.58;38.60;;;17.70;99.90;;;;;;5000877;28;20084;-58
2022/08/19 04:18:37;;;;;;;44.13;37.58;;;17.60;99.90;;;;;;4985985;28;20453;-57
2022/08/19 04:21:04;;;;;;;41.28;36.75;;;17.60;99.90;;;;;;4991337;28;20400;-57
2022/08/19 04:23:29;;;;;;;55.40;43.80;;;17.70;99.90;;;;;;4978619;28;20027;-58
2022/08/19 04:25:59;;;;;;;49.63;43.47;;;17.90;99.90;;;;;;4984873;28;20109;-57
2022/08/19 04:28:25;;;;;;;52.08;43.45;;;17.90;99.90;;;;;;4981477;28;20041;-57
2022/08/19 04:30:52;;;;;;;49.03;42.88;;;17.80;99.90;;;;;;4982257;28;20030;-57
2022/08/19 04:33:22;;;;;;;49.35;42.78;;;17.80;99.90;;;;;;4980094;28;20104;-58
2022/08/19 04:35:48;;;;;;;49.72;42.95;;;17.60;99.90;;;;;;4981568;28;20042;-58
2022/08/19 04:38:16;;;;;;;49.70;43.30;;;17.70;99.90;;;;;;4980895;28;20061;-59
2022/08/19 04:43:31;;;;;;;52.42;44.63;;;17.70;99.90;;;;;;4984419;28;20125;-58
2022/08/19 04:45:57;;;;;;;50.15;44.08;;;17.80;99.90;;;;;;4991108;28;20034;-56
2022/08/19 04:48:25;;;;;;;53.47;46.20;;;17.80;99.90;;;;;;4991731;28;20244;-57
2022/08/19 04:50:57;;;;;;;57.10;47.90;;;17.90;99.90;;;;;;4984973;28;20064;-58
2022/08/19 04:53:30;;;;;;;59.45;48.67;;;17.90;99.90;;;;;;4983394;28;20073;-58
2022/08/19 04:55:56;;;;;;;;;;;17.80;99.90;;;;;;4977702;28;20031;-57
2022/08/19 04:58:24;;;;;;;58.17;47.80;;;17.80;99.90;;;;;;4979252;28;19910;-57
2022/08/19 05:00:50;;;;;;;53.97;45.75;;;17.90;99.90;;;;;;4974885;28;20126;-58
2022/08/19 05:03:16;;;;;;;54.75;46.92;;;17.80;99.90;;;;;;4979259;28;20019;-57
2022/08/19 05:05:48;;;;;;;54.30;46.08;;;17.70;99.90;;;;;;4975402;28;20386;-56
2022/08/19 05:08:19;;;;;;;53.95;45.53;;;17.80;99.90;;;;;;4988543;28;20029;-58
2022/08/19 05:10:47;;;;;;;52.88;45.78;;;17.80;99.90;;;;;;4976716;28;20027;-56
2022/08/19 05:13:14;;;;;;;54.45;45.55;;;17.80;99.90;;;;;;4982151;28;20014;-58
2022/08/19 05:15:40;;;;;;;53.50;45.50;;;17.80;99.90;;;;;;4986709;28;20034;-57
2022/08/19 05:23:34;;;;;;;64.40;51.80;;;18.10;99.90;;;;;;4985894;28;20260;-56
2022/08/19 05:26:00;;;;;;;61.60;50.25;;;18.40;99.90;;;;;;4989928;28;20767;-57
2022/08/19 05:28:27;;;;;;;63.40;52.30;;;18.50;99.90;;;;;;4986217;28;20034;-57
2022/08/19 05:30:55;;;;;;;69.07;55.05;;;18.40;99.90;;;;;;4990747;28;20597;-58
2022/08/19 05:33:21;;;;;;;64.10;53.17;;;18.40;99.90;;;;;;4990463;28;20042;-57
2022/08/19 05:35:49;;;;;;;65.95;54.65;;;18.20;99.90;;;;;;4984748;28;20053;-57
2022/08/19 05:38:15;;;;;;;66.65;54.20;;;18.10;99.90;;;;;;4987995;28;20030;-58
2022/08/19 05:40:41;;;;;;;64.13;51.85;;;18.10;99.90;;;;;;4987687;28;20030;-57
2022/08/19 05:43:08;;;;;;;63.20;53.30;;;18.10;99.90;;;;;;4983984;28;20026;-58
2022/08/19 05:45:40;;;;;;;70.38;58.50;;;18.10;99.90;;;;;;4984249;28;20149;-57
2022/08/19 05:48:05;;;;;;;69.18;57.65;;;18.30;99.90;;;;;;4986583;28;20026;-57
2022/08/19 05:50:31;;;;;;;63.05;53.33;;;18.30;99.90;;;;;;4985890;28;20026;-57
2022/08/19 05:52:56;;;;;;;69.10;55.33;;;18.30;99.90;;;;;;4991965;28;20033;-58
2022/08/19 05:55:23;;;;;;;75.68;58.00;;;18.30;99.90;;;;;;4986198;28;20469;-58
2022/08/19 05:57:49;;;;;;;74.03;57.80;;;18.30;99.90;;;;;;4985852;28;20034;-58
2022/08/19 06:00:15;;;;;;;69.82;55.63;;;18.70;99.90;;;;;;4991510;28;20213;-57
2022/08/19 06:02:41;;;;;;;68.70;57.60;;;18.50;99.90;;;;;;4978500;28;20102;-58
2022/08/19 06:05:08;;;;;;;73.35;58.47;;;18.50;99.90;;;;;;4976857;28;20106;-58
2022/08/19 06:07:36;;;;;;;73.72;58.58;;;18.40;99.90;;;;;;4984188;28;20037;-57
2022/08/19 06:10:04;;;;;;;81.35;62.63;;;18.60;99.90;;;;;;4987767;28;20044;-57
2022/08/19 06:12:34;;;;;;;81.22;63.72;;;18.90;99.90;;;;;;4982692;28;20466;-58
2022/08/19 06:15:03;;;;;;;69.32;55.28;;;19.20;99.90;;;;;;4983777;28;20466;-57
2022/08/19 06:17:29;;;;;;;79.45;61.35;;;19.20;99.90;;;;;;4999559;28;20042;-59
2022/08/19 06:19:56;;;;;;;77.55;60.13;;;19.20;99.90;;;;;;4993088;28;20030;-57
2022/08/19 06:22:22;;;;;;;78.30;58.45;;;19.10;99.90;;;;;;4995873;28;20041;-58
2022/08/19 06:24:48;;;;;;;80.97;59.70;;;19.30;99.90;;;;;;4987084;28;20032;-59
2022/08/19 06:27:13;;;;;;;74.95;58.45;;;19.20;99.90;;;;;;4985262;28;20046;-57
2022/08/19 06:29:39;;;;;;;71.82;56.72;;;19.30;99.90;;;;;;4988438;28;20038;-59
2022/08/19 06:32:05;;;;;;;74.68;56.97;;;19.20;99.90;;;;;;4993840;28;20063;-59
2022/08/19 06:34:32;;;;;;;76.20;57.00;;;19.20;99.90;;;;;;4993231;28;20034;-58
2022/08/19 06:37:03;;;;;;;75.40;57.78;;;19.40;99.90;;;;;;4990514;28;20465;-59
2022/08/19 06:39:37;;;;;;;74.13;55.17;;;19.70;99.90;;;;;;4984882;28;20081;-57
2022/08/19 06:42:06;;;;;;;77.70;53.42;;;19.70;99.90;;;;;;4987373;28;20030;-57
2022/08/19 06:44:36;;;;;;;77.15;55.67;;;20.00;99.90;;;;;;4995535;28;20027;-58
2022/08/19 06:47:06;;;;;;;70.05;51.72;;;20.10;99.90;;;;;;4996234;28;20050;-59
2022/08/19 06:49:33;;;;;;;77.15;57.42;;;20.30;99.90;;;;;;4989551;28;20408;-59
2022/08/19 06:51:59;;;;;;;71.43;51.72;;;20.50;99.90;;;;;;4993666;28;20096;-57
2022/08/19 06:54:26;;;;;;;68.28;50.97;;;20.60;99.90;;;;;;4996788;28;20143;-57
2022/08/19 06:56:51;;;;;;;61.28;46.22;;;20.60;99.90;;;;;;5008836;28;20045;-58
2022/08/19 06:59:20;;;;;;;57.53;45.90;;;20.60;99.90;;;;;;4989609;28;20278;-57
2022/08/19 07:01:49;;;;;;;62.50;46.72;;;20.70;99.90;;;;;;4986833;28;20022;-58
2022/08/19 07:04:18;;;;;;;58.70;44.85;;;20.70;99.90;;;;;;4985877;28;20026;-59
2022/08/19 07:06:45;;;;;;;62.10;46.35;;;20.70;99.90;;;;;;4991873;28;20097;-58
2022/08/19 07:09:13;;;;;;;57.78;43.58;;;20.80;99.90;;;;;;4983934;28;20040;-57
2022/08/19 07:11:43;;;;;;;56.97;43.25;;;20.70;99.90;;;;;;4983953;28;20042;-59
2022/08/19 07:14:08;;;;;;;48.35;39.13;;;20.80;99.90;;;;;;4988987;28;20478;-58
2022/08/19 07:16:34;;;;;;;54.70;40.33;;;20.80;99.90;;;;;;4991417;28;20041;-58
2022/08/19 07:19:00;;;;;;;55.63;44.92;;;20.90;99.90;;;;;;4988168;28;20415;-59
2022/08/19 07:21:28;;;;;;;50.35;38.60;;;21.10;99.90;;;;;;4990522;28;20026;-59
2022/08/19 07:23:55;;;;;;;45.58;35.63;;;21.00;99.90;;;;;;4987249;28;20054;-59
2022/08/19 07:26:24;;;;;;;45.75;32.65;;;21.00;99.90;;;;;;4987340;28;20037;-58
2022/08/19 07:28:50;;;;;;;41.55;32.28;;;20.90;99.90;;;;;;4983996;28;20553;-58
2022/08/19 07:31:19;;;;;;;63.42;49.35;;;21.00;99.90;;;;;;4983739;28;20057;-58
2022/08/19 07:33:47;;;;;;;42.72;34.20;;;21.20;99.90;;;;;;4986018;28;20137;-60
2022/08/19 07:36:15;;;;;;;47.10;36.33;;;21.30;99.90;;;;;;4991777;28;20038;-60
2022/08/19 07:38:43;;;;;;;42.35;34.35;;;21.40;99.90;;;;;;4986297;28;20256;-58
2022/08/19 07:41:12;;;;;;;51.10;39.63;;;21.50;99.90;;;;;;4985233;28;20026;-59
2022/08/19 07:43:39;;;;;;;50.25;38.72;;;21.70;99.90;;;;;;4988453;28;20034;-58
2022/08/19 07:46:05;;;;;;;54.15;41.47;;;21.90;99.90;;;;;;4994697;28;20042;-58
2022/08/19 07:48:31;;;;;;;53.72;40.90;;;21.70;99.90;;;;;;4989574;28;20027;-59
2022/08/19 07:51:03;;;;;;;58.90;43.20;;;21.60;99.90;;;;;;4986460;28;20038;-59
2022/08/19 07:53:30;;;;;;;61.35;44.03;;;21.60;99.90;;;;;;4987374;28;20539;-58
2022/08/19 07:55:59;;;;;;;58.08;45.15;;;21.60;99.90;;;;;;4984645;28;20750;-59
2022/08/19 07:58:25;;;;;;;58.78;42.97;;;21.60;99.90;;;;;;4985459;28;20034;-59
2022/08/19 08:00:51;;;;;;;59.67;45.30;;;21.60;99.90;;;;;;4988636;28;20069;-59
2022/08/19 08:03:18;;;;;;;61.33;44.42;;;21.80;99.90;;;;;;4989520;28;20054;-59
2022/08/19 08:11:01;;;;;;;62.60;46.17;;;22.00;99.90;;;;;;4990704;28;20033;-59
2022/08/19 08:13:27;;;;;;;62.35;43.60;;;22.10;99.90;;;;;;4989996;28;20030;-59
2022/08/19 08:15:53;;;;;;;67.28;46.35;;;22.10;99.90;;;;;;4997740;28;20822;-60
2022/08/19 08:18:20;;;;;;;70.43;50.13;;;22.10;99.90;;;;;;4986516;28;20525;-59
2022/08/19 08:20:46;;;;;;;67.43;49.05;;;22.00;99.90;;;;;;4987900;28;20022;-59
2022/08/19 08:23:28;;;;;;;67.65;48.15;;;22.00;99.90;;;;;;4983723;28;20419;-59
2022/08/19 08:25:56;;;;;;;66.05;45.90;;;22.00;99.90;;;;;;4981465;28;20026;-59
2022/08/19 08:28:22;;;;;;;63.33;44.33;;;22.10;99.90;;;;;;4984100;28;20034;-59
2022/08/19 08:30:49;;;;;;;56.35;40.85;;;22.30;99.90;;;;;;4985556;28;20067;-60
2022/08/19 08:33:23;;;;;;;54.90;38.47;;;22.20;99.90;;;;;;4984612;28;20030;-58
2022/08/19 08:35:48;;;;;;;52.10;37.70;;;22.40;99.90;;;;;;4985451;28;20511;-59
2022/08/19 08:38:15;;;;;;;51.20;37.90;;;22.60;99.90;;;;;;4986252;28;20027;-59
2022/08/19 08:41:06;;;;;;;60.28;41.35;;;22.60;99.90;;;;;;4984411;28;20114;-58
2022/08/19 08:43:43;;;;;;;48.08;37.08;;;22.70;99.90;;;;;;4982351;28;20023;-60
2022/08/19 08:46:16;;;;;;;47.72;37.10;;;22.90;99.90;;;;;;4978958;28;20446;-60
2022/08/19 08:49:07;;;;;;;49.60;38.40;;;23.10;99.90;;;;;;4985584;28;20118;-60
2022/08/19 08:51:38;;;;;;;52.10;39.92;;;23.00;99.90;;;;;;4984140;28;20525;-60
2022/08/19 08:54:12;;;;;;;48.67;38.17;;;23.10;99.90;;;;;;4990662;28;20058;-59
2022/08/19 08:56:41;;;;;;;45.80;34.65;;;22.40;99.90;;;;;;4991784;28;20480;-60
2022/08/19 08:59:24;;;;;;;49.33;38.35;;;23.00;99.90;;;;;;4991543;28;20022;-59
2022/08/19 09:01:49;;;;;;;42.75;30.90;;;23.10;99.90;;;;;;4985516;28;20038;-59
2022/08/19 09:04:15;;;;;;;46.78;34.78;;;23.20;99.90;;;;;;4984053;28;20030;-59
2022/08/19 09:06:59;;;;;;;46.97;36.47;;;23.30;99.90;;;;;;4981382;28;20055;-59
2022/08/19 09:09:30;;;;;;;47.40;37.38;;;23.30;99.90;;;;;;4984865;28;20478;-59
2022/08/19 09:12:09;;;;;;;44.08;33.42;;;23.40;99.90;;;;;;4971320;28;20031;-61
2022/08/19 09:14:49;;;;;;;45.38;31.88;;;23.30;99.90;;;;;;4982030;28;20092;-60
2022/08/19 09:17:15;;;;;;;47.17;33.55;;;23.40;99.90;;;;;;4979187;28;20042;-59
2022/08/19 09:20:04;;;;;;;44.03;32.83;;;23.20;99.90;;;;;;4991310;28;20386;-60
2022/08/19 09:22:30;;;;;;;39.65;29.67;;;23.20;99.90;;;;;;4995983;28;20988;-59
2022/08/19 09:24:56;;;;;;;41.05;31.58;;;23.30;99.90;;;;;;4986983;28;20022;-59
2022/08/19 09:27:23;;;;;;;37.85;29.80;;;23.10;99.90;;;;;;4973600;28;20039;-60
2022/08/19 09:29:50;;;;;;;33.38;25.23;;;23.20;99.90;;;;;;4978042;28;20030;-59
2022/08/19 09:32:17;;;;;;;30.48;22.65;;;23.30;99.90;;;;;;4986820;28;20251;-60
2022/08/19 09:34:43;;;;;;;31.23;24.63;;;23.40;99.90;;;;;;4984860;28;20086;-59
2022/08/19 09:37:08;;;;;;;31.15;24.52;;;23.40;99.90;;;;;;4998474;28;20042;-60
2022/08/19 09:39:34;;;;;;;29.27;23.75;;;23.30;99.90;;;;;;4985454;28;20027;-61
2022/08/19 09:41:59;;;;;;;39.70;23.20;;;23.20;99.90;;;;;;4983200;28;20030;-59
2022/08/19 09:44:25;;;;;;;25.35;20.77;;;23.30;99.90;;;;;;4989608;28;20022;-60
2022/08/19 09:46:51;;;;;;;21.00;17.58;;;23.50;99.90;;;;;;4991427;28;20049;-59
2022/08/19 09:49:18;;;;;;;20.08;16.88;;;23.70;99.90;;;;;;4984514;28;20039;-61
2022/08/19 09:51:44;;;;;;;25.98;19.45;;;23.70;99.90;;;;;;4987312;28;20078;-60
2022/08/19 09:54:10;;;;;;;22.48;18.48;;;23.80;99.90;;;;;;4990086;28;20027;-60
2022/08/19 09:56:36;;;;;;;25.42;19.08;;;23.90;99.90;;;;;;4988662;28;20033;-58
2022/08/19 09:59:06;;;;;;;26.23;18.50;;;24.00;99.90;;;;;;4982937;28;20022;-60
2022/08/19 10:01:32;;;;;;;26.75;19.88;;;24.00;99.90;;;;;;4979594;28;20029;-61
2022/08/19 10:04:00;;;;;;;24.50;19.33;;;24.00;99.90;;;;;;4986043;28;20385;-61
2022/08/19 10:06:31;;;;;;;24.25;16.83;;;23.90;99.90;;;;;;4998600;28;20473;-61
2022/08/19 10:08:56;;;;;;;22.20;16.58;;;23.90;99.90;;;;;;4987894;28;20031;-60
2022/08/19 10:11:22;;;;;;;20.45;15.90;;;24.00;99.90;;;;;;4991446;28;20050;-59
2022/08/19 10:13:48;;;;;;;18.58;16.00;;;24.10;99.90;;;;;;4990798;28;20039;-60
2022/08/19 10:16:19;;;;;;;25.08;16.98;;;24.20;99.90;;;;;;4987963;28;20041;-61
2022/08/19 10:18:45;;;;;;;18.05;14.50;;;24.20;99.90;;;;;;4986671;28;20038;-60
2022/08/19 10:21:17;;;;;;;18.88;14.82;;;24.30;99.90;;;;;;4992917;28;20489;-60
2022/08/19 10:23:45;;;;;;;20.30;14.43;;;24.30;99.90;;;;;;4986661;28;20524;-59
2022/08/19 10:26:19;;;;;;;18.95;15.55;;;24.30;99.90;;;;;;4978370;28;20026;-59
2022/08/19 10:28:45;;;;;;;20.23;14.77;;;24.40;99.90;;;;;;4990096;28;20042;-59
2022/08/19 10:31:14;;;;;;;20.92;14.18;;;24.30;99.90;;;;;;4987959;28;20496;-60
2022/08/19 10:33:40;;;;;;;20.08;14.27;;;24.50;99.90;;;;;;4982308;28;20042;-60
2022/08/19 10:36:18;;;;;;;19.33;14.82;;;24.50;99.90;;;;;;4985294;28;20122;-61
2022/08/19 10:38:45;;;;;;;20.80;14.75;;;24.50;99.90;;;;;;4997795;28;20061;-59
2022/08/19 10:41:14;;;;;;;24.05;17.73;;;24.60;99.90;;;;;;4985312;28;20034;-60
2022/08/19 10:43:41;;;;;;;17.20;14.85;;;24.50;99.90;;;;;;4992495;28;20050;-61
2022/08/19 10:46:14;;;;;;;18.65;15.15;;;24.50;99.90;;;;;;4982966;28;20105;-61
2022/08/19 10:48:41;;;;;;;20.75;13.88;;;24.50;99.90;;;;;;4985982;28;20039;-61
2022/08/19 10:53:52;;;;;;;18.55;12.80;;;24.80;99.90;;;;;;4985790;28;20037;-61
2022/08/19 10:59:04;;;;;;;74.68;59.20;;;24.60;99.90;;;;;;4984804;28;20081;-60
2022/08/19 11:01:32;;;;;;;19.92;14.55;;;24.50;99.90;;;;;;4987942;28;20026;-59
2022/08/19 11:03:59;;;;;;;17.30;14.57;;;24.50;99.90;;;;;;4981540;28;20053;-60
2022/08/19 11:06:25;;;;;;;18.98;12.63;;;24.50;99.90;;;;;;4988512;28;20030;-61
2022/08/19 11:08:52;;;;;;;17.17;13.18;;;24.50;99.90;;;;;;4989983;28;20131;-61
2022/08/19 11:11:21;;;;;;;20.83;12.77;;;24.60;99.90;;;;;;4991352;28;20485;-61
2022/08/19 11:13:49;;;;;;;15.65;12.20;;;24.60;99.90;;;;;;4992204;28;20022;-60
2022/08/19 11:16:25;;;;;;;12.52;10.75;;;24.60;99.90;;;;;;4995598;28;20152;-62
2022/08/19 11:18:53;;;;;;;14.45;11.05;;;24.70;99.90;;;;;;4996588;28;20020;-60
2022/08/19 11:21:23;;;;;;;13.07;11.32;;;24.80;99.90;;;;;;4990758;28;20426;-60
2022/08/19 11:23:51;;;;;;;13.07;11.20;;;25.00;99.90;;;;;;4988676;28;20386;-61
2022/08/19 11:26:18;;;;;;;18.02;10.98;;;25.10;99.90;;;;;;4987514;28;20045;-60
2022/08/19 11:28:45;;;;;;;14.57;12.68;;;25.10;99.90;;;;;;5002467;28;20762;-59
2022/08/19 11:31:15;;;;;;;14.32;11.77;;;25.10;99.90;;;;;;4990483;28;20034;-59
2022/08/19 11:33:41;;;;;;;14.48;12.10;;;25.10;99.90;;;;;;4992240;28;20109;-59
2022/08/19 11:36:07;;;;;;;15.32;11.43;;;25.00;99.90;;;;;;4990567;28;20355;-60
2022/08/19 11:38:35;;;;;;;15.48;11.90;;;25.10;99.90;;;;;;4985795;28;20437;-60
2022/08/19 11:41:04;;;;;;;12.63;10.98;;;24.90;99.90;;;;;;4986811;28;20382;-60
2022/08/19 11:43:30;;;;;;;18.05;10.55;;;24.80;99.90;;;;;;4988350;28;20030;-60
2022/08/19 11:45:57;;;;;;;13.25;10.40;;;25.00;99.90;;;;;;4992116;28;20531;-60
2022/08/19 11:48:23;;;;;;;14.13;9.57;;;25.00;99.90;;;;;;4986646;28;20026;-61
2022/08/19 11:50:50;;;;;;;10.43;7.35;;;25.00;99.90;;;;;;4987211;28;20034;-61
2022/08/19 11:53:19;;;;;;;9.45;7.53;;;25.00;99.90;;;;;;4981706;28;20454;-62
2022/08/19 11:55:46;;;;;;;8.43;6.03;;;25.10;99.90;;;;;;4982794;28;20026;-60
2022/08/19 11:58:13;;;;;;;11.52;7.05;;;25.10;99.90;;;;;;4987142;28;20481;-60
2022/08/19 12:00:40;;;;;;;13.60;8.27;;;25.10;99.90;;;;;;4983426;28;20077;-61
2022/08/19 12:03:06;;;;;;;15.15;8.55;;;24.90;99.90;;;;;;4987211;28;20054;-60
2022/08/19 12:05:32;;;;;;;8.00;7.13;;;24.80;99.90;;;;;;4986140;28;20054;-60
2022/08/19 12:07:57;;;;;;;9.30;6.85;;;25.00;99.90;;;;;;4986535;28;20496;-61
2022/08/19 12:10:23;;;;;;;10.48;7.68;;;25.00;99.90;;;;;;4984682;28;20042;-62
2022/08/19 12:12:50;;;;;;;9.93;7.10;;;25.20;99.90;;;;;;4992937;28;20033;-61
2022/08/19 12:15:16;;;;;;;8.73;6.13;;;25.30;99.90;;;;;;4984478;28;20074;-61
2022/08/19 12:17:42;;;;;;;8.13;5.97;;;25.30;99.90;;;;;;4986634;28;20112;-59
2022/08/19 12:20:10;;;;;;;11.05;7.07;;;25.40;99.90;;;;;;4984174;28;20076;-61
2022/08/19 12:22:37;;;;;;;9.82;6.80;;;25.40;99.90;;;;;;4981618;28;20461;-61
2022/08/19 12:25:04;;;;;;;10.50;6.25;;;25.60;99.90;;;;;;4987794;28;20057;-61
2022/08/19 12:27:30;;;;;;;9.77;6.55;;;25.40;99.90;;;;;;4984752;28;20049;-60
2022/08/19 12:29:55;;;;;;;8.27;5.82;;;25.50;99.90;;;;;;4987998;28;20026;-60
2022/08/19 12:32:21;;;;;;;7.90;5.97;;;25.50;99.90;;;;;;4989568;28;20038;-60
2022/08/19 12:34:47;;;;;;;7.70;5.68;;;25.40;99.90;;;;;;4986533;28;20053;-61
2022/08/19 12:37:13;;;;;;;9.82;5.20;;;25.40;99.90;;;;;;4986789;28;20035;-60
2022/08/19 12:39:41;;;;;;;11.43;6.00;;;25.50;99.90;;;;;;4992785;28;20465;-61
2022/08/19 12:42:08;;;;;;;10.02;5.47;;;25.60;99.90;;;;;;4978554;28;20023;-61
2022/08/19 12:44:35;;;;;;;9.48;6.72;;;25.70;99.90;;;;;;4985782;28;20030;-60
2022/08/19 12:47:02;;;;;;;9.13;5.40;;;25.80;99.90;;;;;;4986184;28;20054;-60
2022/08/19 12:49:29;;;;;;;10.50;6.13;;;25.80;99.90;;;;;;4985902;28;20033;-62
2022/08/19 12:51:54;;;;;;;8.70;5.80;;;25.90;99.90;;;;;;4983851;28;20564;-60
2022/08/19 12:54:20;;;;;;;7.47;5.70;;;25.70;99.90;;;;;;5002285;28;20030;-61